sensor_id;sensor_type;location;lat;lon;timestamp;P1;durP1;ratioP1;P2;durP2;ratioP2
77302;SDS011;66363;49.828;7.856;2023-04-25T00:01:46;2.25;;;1.48;;
77302;SDS011;66363;49.828;7.856;2023-04-25T00:04:13;2.45;;;1.52;;
77302;SDS011;66363;49.828;7.856;2023-04-25T00:06:39;2.03;;;1.38;;
77302;SDS011;66363;49.828;7.856;2023-04-25T00:09:04;2.63;;;1.73;;
77302;SDS011;66363;49.828;7.856;2023-04-25T00:11:30;2.97;;;1.58;;
77302;SDS011;66363;49.828;7.856;2023-04-25T00:13:56;2.38;;;1.60;;
77302;SDS011;66363;49.828;7.856;2023-04-25T00:16:22;1.55;;;1.35;;
77302;SDS011;66363;49.828;7.856;2023-04-25T00:18:48;3.10;;;1.60;;
77302;SDS011;66363;49.828;7.856;2023-04-25T00:21:15;2.10;;;1.48;;
77302;SDS011;66363;49.828;7.856;2023-04-25T00:23:41;1.83;;;1.23;;
77302;SDS011;66363;49.828;7.856;2023-04-25T00:26:06;2.60;;;1.45;;
77302;SDS011;66363;49.828;7.856;2023-04-25T00:28:32;2.13;;;1.35;;
77302;SDS011;66363;49.828;7.856;2023-04-25T00:30:57;2.55;;;1.50;;
77302;SDS011;66363;49.828;7.856;2023-04-25T00:33:23;1.85;;;1.50;;
77302;SDS011;66363;49.828;7.856;2023-04-25T00:35:49;2.00;;;1.38;;
77302;SDS011;66363;49.828;7.856;2023-04-25T00:38:16;2.88;;;1.80;;
77302;SDS011;66363;49.828;7.856;2023-04-25T00:40:42;3.53;;;1.90;;
77302;SDS011;66363;49.828;7.856;2023-04-25T00:43:07;2.50;;;1.50;;
77302;SDS011;66363;49.828;7.856;2023-04-25T00:45:33;2.80;;;1.80;;
77302;SDS011;66363;49.828;7.856;2023-04-25T00:48:04;2.50;;;1.25;;
77302;SDS011;66363;49.828;7.856;2023-04-25T00:50:30;2.58;;;1.23;;
77302;SDS011;66363;49.828;7.856;2023-04-25T00:52:58;3.03;;;1.55;;
77302;SDS011;66363;49.828;7.856;2023-04-25T00:55:25;2.17;;;1.63;;
77302;SDS011;66363;49.828;7.856;2023-04-25T00:57:51;2.53;;;1.58;;
77302;SDS011;66363;49.828;7.856;2023-04-25T01:00:17;2.47;;;1.70;;
77302;SDS011;66363;49.828;7.856;2023-04-25T01:02:43;2.90;;;1.50;;
77302;SDS011;66363;49.828;7.856;2023-04-25T01:05:10;2.53;;;1.48;;
77302;SDS011;66363;49.828;7.856;2023-04-25T01:07:35;1.90;;;1.20;;
77302;SDS011;66363;49.828;7.856;2023-04-25T01:10:01;4.38;;;1.75;;
77302;SDS011;66363;49.828;7.856;2023-04-25T01:12:28;4.10;;;1.95;;
77302;SDS011;66363;49.828;7.856;2023-04-25T01:14:54;3.08;;;1.48;;
77302;SDS011;66363;49.828;7.856;2023-04-25T01:17:20;2.65;;;1.58;;
77302;SDS011;66363;49.828;7.856;2023-04-25T01:19:46;2.95;;;1.48;;
77302;SDS011;66363;49.828;7.856;2023-04-25T01:22:13;2.75;;;1.80;;
77302;SDS011;66363;49.828;7.856;2023-04-25T01:24:39;4.10;;;1.42;;
77302;SDS011;66363;49.828;7.856;2023-04-25T01:27:05;3.03;;;1.48;;
77302;SDS011;66363;49.828;7.856;2023-04-25T01:29:31;1.75;;;1.10;;
77302;SDS011;66363;49.828;7.856;2023-04-25T01:31:58;3.08;;;1.65;;
77302;SDS011;66363;49.828;7.856;2023-04-25T01:34:24;2.67;;;1.73;;
77302;SDS011;66363;49.828;7.856;2023-04-25T01:36:50;3.65;;;1.83;;
77302;SDS011;66363;49.828;7.856;2023-04-25T01:39:18;2.42;;;1.40;;
77302;SDS011;66363;49.828;7.856;2023-04-25T01:41:44;3.47;;;1.63;;
77302;SDS011;66363;49.828;7.856;2023-04-25T01:46:35;2.80;;;1.63;;
77302;SDS011;66363;49.828;7.856;2023-04-25T01:49:01;2.25;;;1.70;;
77302;SDS011;66363;49.828;7.856;2023-04-25T01:51:27;3.08;;;1.75;;
77302;SDS011;66363;49.828;7.856;2023-04-25T01:53:53;2.88;;;1.70;;
77302;SDS011;66363;49.828;7.856;2023-04-25T01:56:21;2.22;;;1.33;;
77302;SDS011;66363;49.828;7.856;2023-04-25T01:58:47;2.33;;;1.63;;
77302;SDS011;66363;49.828;7.856;2023-04-25T02:01:13;2.63;;;1.52;;
77302;SDS011;66363;49.828;7.856;2023-04-25T02:03:39;2.53;;;1.45;;
77302;SDS011;66363;49.828;7.856;2023-04-25T02:06:05;3.80;;;1.80;;
77302;SDS011;66363;49.828;7.856;2023-04-25T02:08:30;3.42;;;2.00;;
77302;SDS011;66363;49.828;7.856;2023-04-25T02:10:56;2.72;;;1.73;;
77302;SDS011;66363;49.828;7.856;2023-04-25T02:13:23;2.70;;;1.50;;
77302;SDS011;66363;49.828;7.856;2023-04-25T02:15:49;4.57;;;1.63;;
77302;SDS011;66363;49.828;7.856;2023-04-25T02:18:15;1.73;;;1.42;;
77302;SDS011;66363;49.828;7.856;2023-04-25T02:20:40;2.80;;;1.48;;
77302;SDS011;66363;49.828;7.856;2023-04-25T02:23:06;1.73;;;1.33;;
77302;SDS011;66363;49.828;7.856;2023-04-25T02:25:32;2.90;;;1.75;;
77302;SDS011;66363;49.828;7.856;2023-04-25T02:27:57;2.90;;;1.67;;
77302;SDS011;66363;49.828;7.856;2023-04-25T02:30:24;3.95;;;1.95;;
77302;SDS011;66363;49.828;7.856;2023-04-25T02:32:50;5.03;;;1.80;;
77302;SDS011;66363;49.828;7.856;2023-04-25T02:35:16;3.40;;;1.98;;
77302;SDS011;66363;49.828;7.856;2023-04-25T02:37:42;3.58;;;1.65;;
77302;SDS011;66363;49.828;7.856;2023-04-25T02:40:08;3.05;;;1.95;;
77302;SDS011;66363;49.828;7.856;2023-04-25T02:42:34;2.75;;;1.73;;
77302;SDS011;66363;49.828;7.856;2023-04-25T02:45:00;4.65;;;2.45;;
77302;SDS011;66363;49.828;7.856;2023-04-25T02:47:27;3.03;;;1.63;;
77302;SDS011;66363;49.828;7.856;2023-04-25T02:49:53;3.33;;;2.00;;
77302;SDS011;66363;49.828;7.856;2023-04-25T02:52:18;3.03;;;1.80;;
77302;SDS011;66363;49.828;7.856;2023-04-25T02:54:44;6.05;;;1.55;;
77302;SDS011;66363;49.828;7.856;2023-04-25T02:57:10;3.13;;;1.63;;
77302;SDS011;66363;49.828;7.856;2023-04-25T02:59:35;3.45;;;1.60;;
77302;SDS011;66363;49.828;7.856;2023-04-25T03:02:02;2.70;;;1.73;;
77302;SDS011;66363;49.828;7.856;2023-04-25T03:04:29;2.72;;;2.03;;
77302;SDS011;66363;49.828;7.856;2023-04-25T03:06:55;3.95;;;1.60;;
77302;SDS011;66363;49.828;7.856;2023-04-25T03:09:20;1.98;;;1.42;;
77302;SDS011;66363;49.828;7.856;2023-04-25T03:11:46;3.75;;;1.90;;
77302;SDS011;66363;49.828;7.856;2023-04-25T03:14:12;3.03;;;1.63;;
77302;SDS011;66363;49.828;7.856;2023-04-25T03:16:38;2.95;;;1.70;;
77302;SDS011;66363;49.828;7.856;2023-04-25T03:19:04;3.88;;;2.10;;
77302;SDS011;66363;49.828;7.856;2023-04-25T03:21:31;2.80;;;1.70;;
77302;SDS011;66363;49.828;7.856;2023-04-25T03:23:58;4.13;;;2.15;;
77302;SDS011;66363;49.828;7.856;2023-04-25T03:26:24;3.20;;;1.60;;
77302;SDS011;66363;49.828;7.856;2023-04-25T03:28:50;4.15;;;2.40;;
77302;SDS011;66363;49.828;7.856;2023-04-25T03:31:16;2.55;;;1.83;;
77302;SDS011;66363;49.828;7.856;2023-04-25T03:33:41;2.38;;;1.60;;
77302;SDS011;66363;49.828;7.856;2023-04-25T03:36:07;3.05;;;2.20;;
77302;SDS011;66363;49.828;7.856;2023-04-25T03:41:00;2.05;;;1.50;;
77302;SDS011;66363;49.828;7.856;2023-04-25T03:43:26;3.40;;;1.85;;
77302;SDS011;66363;49.828;7.856;2023-04-25T03:45:52;3.08;;;1.52;;
77302;SDS011;66363;49.828;7.856;2023-04-25T03:48:17;3.45;;;2.00;;
77302;SDS011;66363;49.828;7.856;2023-04-25T03:50:43;3.55;;;1.75;;
77302;SDS011;66363;49.828;7.856;2023-04-25T03:53:09;3.65;;;1.55;;
77302;SDS011;66363;49.828;7.856;2023-04-25T03:55:36;5.35;;;2.28;;
77302;SDS011;66363;49.828;7.856;2023-04-25T03:58:01;2.50;;;1.60;;
77302;SDS011;66363;49.828;7.856;2023-04-25T04:00:27;1.80;;;1.10;;
77302;SDS011;66363;49.828;7.856;2023-04-25T04:02:53;3.95;;;1.52;;
77302;SDS011;66363;49.828;7.856;2023-04-25T04:05:18;3.08;;;1.70;;
77302;SDS011;66363;49.828;7.856;2023-04-25T04:07:44;3.88;;;2.20;;
77302;SDS011;66363;49.828;7.856;2023-04-25T04:10:10;5.45;;;2.53;;
77302;SDS011;66363;49.828;7.856;2023-04-25T04:12:37;2.53;;;1.63;;
77302;SDS011;66363;49.828;7.856;2023-04-25T04:15:04;3.85;;;1.70;;
77302;SDS011;66363;49.828;7.856;2023-04-25T04:17:30;4.20;;;2.15;;
77302;SDS011;66363;49.828;7.856;2023-04-25T04:19:56;4.22;;;1.90;;
77302;SDS011;66363;49.828;7.856;2023-04-25T04:22:22;3.88;;;2.05;;
77302;SDS011;66363;49.828;7.856;2023-04-25T04:24:48;2.80;;;1.63;;
77302;SDS011;66363;49.828;7.856;2023-04-25T04:27:13;4.78;;;1.92;;
77302;SDS011;66363;49.828;7.856;2023-04-25T04:29:40;3.20;;;1.88;;
77302;SDS011;66363;49.828;7.856;2023-04-25T04:32:06;2.80;;;1.75;;
77302;SDS011;66363;49.828;7.856;2023-04-25T04:34:32;2.45;;;1.55;;
77302;SDS011;66363;49.828;7.856;2023-04-25T04:36:57;4.05;;;2.00;;
77302;SDS011;66363;49.828;7.856;2023-04-25T04:39:23;4.32;;;2.15;;
77302;SDS011;66363;49.828;7.856;2023-04-25T04:41:49;4.18;;;2.20;;
77302;SDS011;66363;49.828;7.856;2023-04-25T04:44:15;3.40;;;1.50;;
77302;SDS011;66363;49.828;7.856;2023-04-25T04:46:42;2.40;;;1.50;;
77302;SDS011;66363;49.828;7.856;2023-04-25T04:49:08;3.60;;;2.10;;
77302;SDS011;66363;49.828;7.856;2023-04-25T04:51:34;3.97;;;2.22;;
77302;SDS011;66363;49.828;7.856;2023-04-25T04:53:59;5.13;;;2.17;;
77302;SDS011;66363;49.828;7.856;2023-04-25T04:56:25;4.28;;;2.38;;
77302;SDS011;66363;49.828;7.856;2023-04-25T04:58:51;5.15;;;2.42;;
77302;SDS011;66363;49.828;7.856;2023-04-25T05:01:16;4.20;;;2.65;;
77302;SDS011;66363;49.828;7.856;2023-04-25T05:03:43;3.97;;;2.60;;
77302;SDS011;66363;49.828;7.856;2023-04-25T05:06:09;4.05;;;2.33;;
77302;SDS011;66363;49.828;7.856;2023-04-25T05:08:35;4.75;;;2.30;;
77302;SDS011;66363;49.828;7.856;2023-04-25T05:11:01;4.10;;;2.33;;
77302;SDS011;66363;49.828;7.856;2023-04-25T05:13:27;4.00;;;2.45;;
77302;SDS011;66363;49.828;7.856;2023-04-25T05:15:53;4.70;;;2.30;;
77302;SDS011;66363;49.828;7.856;2023-04-25T05:18:18;4.93;;;2.38;;
77302;SDS011;66363;49.828;7.856;2023-04-25T05:20:45;3.63;;;2.65;;
77302;SDS011;66363;49.828;7.856;2023-04-25T05:23:11;5.55;;;2.60;;
77302;SDS011;66363;49.828;7.856;2023-04-25T05:25:37;4.32;;;2.88;;
77302;SDS011;66363;49.828;7.856;2023-04-25T05:28:02;4.28;;;2.70;;
77302;SDS011;66363;49.828;7.856;2023-04-25T05:30:28;4.95;;;3.13;;
77302;SDS011;66363;49.828;7.856;2023-04-25T05:32:54;6.75;;;2.60;;
77302;SDS011;66363;49.828;7.856;2023-04-25T05:35:19;4.90;;;2.72;;
77302;SDS011;66363;49.828;7.856;2023-04-25T05:37:46;4.95;;;2.58;;
77302;SDS011;66363;49.828;7.856;2023-04-25T05:40:12;6.15;;;2.80;;
77302;SDS011;66363;49.828;7.856;2023-04-25T05:42:38;5.85;;;2.50;;
77302;SDS011;66363;49.828;7.856;2023-04-25T05:45:04;4.75;;;2.17;;
77302;SDS011;66363;49.828;7.856;2023-04-25T05:47:30;6.35;;;2.20;;
77302;SDS011;66363;49.828;7.856;2023-04-25T05:49:56;5.13;;;2.80;;
77302;SDS011;66363;49.828;7.856;2023-04-25T05:52:22;5.15;;;2.67;;
77302;SDS011;66363;49.828;7.856;2023-04-25T05:54:49;7.90;;;2.47;;
77302;SDS011;66363;49.828;7.856;2023-04-25T05:57:21;3.03;;;2.22;;
77302;SDS011;66363;49.828;7.856;2023-04-25T05:59:48;4.38;;;2.03;;
77302;SDS011;66363;49.828;7.856;2023-04-25T06:02:13;3.78;;;2.55;;
77302;SDS011;66363;49.828;7.856;2023-04-25T06:04:39;4.50;;;2.72;;
77302;SDS011;66363;49.828;7.856;2023-04-25T06:07:05;5.80;;;2.85;;
77302;SDS011;66363;49.828;7.856;2023-04-25T06:09:30;6.05;;;2.80;;
77302;SDS011;66363;49.828;7.856;2023-04-25T06:11:57;6.25;;;2.63;;
77302;SDS011;66363;49.828;7.856;2023-04-25T06:14:23;7.47;;;2.38;;
77302;SDS011;66363;49.828;7.856;2023-04-25T06:16:48;7.18;;;2.65;;
77302;SDS011;66363;49.828;7.856;2023-04-25T06:19:14;8.95;;;2.58;;
77302;SDS011;66363;49.828;7.856;2023-04-25T06:21:41;6.80;;;2.65;;
77302;SDS011;66363;49.828;7.856;2023-04-25T06:24:08;8.00;;;2.88;;
77302;SDS011;66363;49.828;7.856;2023-04-25T06:26:34;4.28;;;2.63;;
77302;SDS011;66363;49.828;7.856;2023-04-25T06:29:01;4.40;;;2.28;;
77302;SDS011;66363;49.828;7.856;2023-04-25T06:31:26;4.95;;;2.72;;
77302;SDS011;66363;49.828;7.856;2023-04-25T06:33:52;6.13;;;2.40;;
77302;SDS011;66363;49.828;7.856;2023-04-25T06:36:18;5.10;;;2.47;;
77302;SDS011;66363;49.828;7.856;2023-04-25T06:38:43;5.70;;;2.47;;
77302;SDS011;66363;49.828;7.856;2023-04-25T06:41:09;6.68;;;2.72;;
77302;SDS011;66363;49.828;7.856;2023-04-25T06:43:35;4.30;;;2.53;;
77302;SDS011;66363;49.828;7.856;2023-04-25T06:46:02;3.65;;;2.30;;
77302;SDS011;66363;49.828;7.856;2023-04-25T06:48:27;6.82;;;2.95;;
77302;SDS011;66363;49.828;7.856;2023-04-25T06:50:53;2.72;;;1.80;;
77302;SDS011;66363;49.828;7.856;2023-04-25T06:53:19;9.00;;;2.28;;
77302;SDS011;66363;49.828;7.856;2023-04-25T06:55:45;5.95;;;2.10;;
77302;SDS011;66363;49.828;7.856;2023-04-25T06:58:10;4.10;;;1.70;;
77302;SDS011;66363;49.828;7.856;2023-04-25T07:00:36;5.38;;;1.60;;
77302;SDS011;66363;49.828;7.856;2023-04-25T07:03:03;7.10;;;1.90;;
77302;SDS011;66363;49.828;7.856;2023-04-25T07:05:29;2.25;;;0.93;;
77302;SDS011;66363;49.828;7.856;2023-04-25T07:07:54;2.63;;;1.63;;
77302;SDS011;66363;49.828;7.856;2023-04-25T07:10:20;3.35;;;1.38;;
77302;SDS011;66363;49.828;7.856;2023-04-25T07:12:45;3.50;;;1.48;;
77302;SDS011;66363;49.828;7.856;2023-04-25T07:15:11;6.70;;;1.60;;
77302;SDS011;66363;49.828;7.856;2023-04-25T07:17:37;2.60;;;1.55;;
77302;SDS011;66363;49.828;7.856;2023-04-25T07:20:04;2.85;;;1.20;;
77302;SDS011;66363;49.828;7.856;2023-04-25T07:22:31;3.40;;;1.30;;
77302;SDS011;66363;49.828;7.856;2023-04-25T07:24:57;3.15;;;1.48;;
77302;SDS011;66363;49.828;7.856;2023-04-25T07:27:22;3.20;;;1.42;;
77302;SDS011;66363;49.828;7.856;2023-04-25T07:29:48;2.28;;;1.42;;
77302;SDS011;66363;49.828;7.856;2023-04-25T07:32:14;2.45;;;1.35;;
77302;SDS011;66363;49.828;7.856;2023-04-25T07:34:39;3.55;;;1.45;;
77302;SDS011;66363;49.828;7.856;2023-04-25T07:37:06;2.10;;;1.45;;
77302;SDS011;66363;49.828;7.856;2023-04-25T07:39:32;2.65;;;1.60;;
77302;SDS011;66363;49.828;7.856;2023-04-25T07:41:58;2.13;;;1.52;;
77302;SDS011;66363;49.828;7.856;2023-04-25T07:44:23;1.60;;;1.23;;
77302;SDS011;66363;49.828;7.856;2023-04-25T07:46:49;6.28;;;1.98;;
77302;SDS011;66363;49.828;7.856;2023-04-25T07:49:15;3.03;;;1.30;;
77302;SDS011;66363;49.828;7.856;2023-04-25T07:51:40;2.95;;;1.48;;
77302;SDS011;66363;49.828;7.856;2023-04-25T07:54:07;5.93;;;2.05;;
77302;SDS011;66363;49.828;7.856;2023-04-25T07:56:33;1.98;;;1.20;;
77302;SDS011;66363;49.828;7.856;2023-04-25T07:58:59;2.00;;;1.10;;
77302;SDS011;66363;49.828;7.856;2023-04-25T08:01:24;2.03;;;1.30;;
77302;SDS011;66363;49.828;7.856;2023-04-25T08:03:50;1.88;;;1.45;;
77302;SDS011;66363;49.828;7.856;2023-04-25T08:06:15;2.50;;;1.30;;
77302;SDS011;66363;49.828;7.856;2023-04-25T08:08:41;2.00;;;1.30;;
77302;SDS011;66363;49.828;7.856;2023-04-25T08:11:08;1.80;;;1.20;;
77302;SDS011;66363;49.828;7.856;2023-04-25T08:13:34;2.30;;;1.40;;
77302;SDS011;66363;49.828;7.856;2023-04-25T08:16:00;2.08;;;1.30;;
77302;SDS011;66363;49.828;7.856;2023-04-25T08:18:25;2.35;;;1.15;;
77302;SDS011;66363;49.828;7.856;2023-04-25T08:20:51;1.95;;;1.42;;
77302;SDS011;66363;49.828;7.856;2023-04-25T08:23:16;2.15;;;1.35;;
77302;SDS011;66363;49.828;7.856;2023-04-25T08:25:42;1.90;;;1.42;;
77302;SDS011;66363;49.828;7.856;2023-04-25T08:28:09;1.45;;;1.30;;
77302;SDS011;66363;49.828;7.856;2023-04-25T08:30:35;6.25;;;1.50;;
77302;SDS011;66363;49.828;7.856;2023-04-25T08:35:26;3.28;;;1.40;;
77302;SDS011;66363;49.828;7.856;2023-04-25T08:37:52;1.77;;;1.08;;
77302;SDS011;66363;49.828;7.856;2023-04-25T08:40:18;1.35;;;1.00;;
77302;SDS011;66363;49.828;7.856;2023-04-25T08:42:47;1.17;;;1.00;;
77302;SDS011;66363;49.828;7.856;2023-04-25T08:45:17;1.35;;;1.20;;
77302;SDS011;66363;49.828;7.856;2023-04-25T08:47:42;3.03;;;1.38;;
77302;SDS011;66363;49.828;7.856;2023-04-25T08:50:10;3.72;;;1.33;;
77302;SDS011;66363;49.828;7.856;2023-04-25T08:52:36;3.65;;;1.05;;
77302;SDS011;66363;49.828;7.856;2023-04-25T08:55:05;2.20;;;1.45;;
77302;SDS011;66363;49.828;7.856;2023-04-25T08:57:34;2.40;;;1.30;;
77302;SDS011;66363;49.828;7.856;2023-04-25T09:00:00;1.60;;;1.15;;
77302;SDS011;66363;49.828;7.856;2023-04-25T09:02:28;1.40;;;0.90;;
77302;SDS011;66363;49.828;7.856;2023-04-25T09:04:54;3.45;;;1.30;;
77302;SDS011;66363;49.828;7.856;2023-04-25T09:07:20;1.65;;;1.23;;
77302;SDS011;66363;49.828;7.856;2023-04-25T09:09:46;3.85;;;1.67;;
77302;SDS011;66363;49.828;7.856;2023-04-25T09:12:12;1.73;;;1.35;;
77302;SDS011;66363;49.828;7.856;2023-04-25T09:14:38;1.65;;;1.25;;
77302;SDS011;66363;49.828;7.856;2023-04-25T09:17:04;1.50;;;1.08;;
77302;SDS011;66363;49.828;7.856;2023-04-25T09:19:32;1.60;;;1.30;;
77302;SDS011;66363;49.828;7.856;2023-04-25T09:21:59;3.45;;;1.48;;
77302;SDS011;66363;49.828;7.856;2023-04-25T09:24:30;2.25;;;1.20;;
77302;SDS011;66363;49.828;7.856;2023-04-25T09:27:02;3.10;;;1.60;;
77302;SDS011;66363;49.828;7.856;2023-04-25T09:29:29;1.45;;;1.30;;
77302;SDS011;66363;49.828;7.856;2023-04-25T09:32:00;1.60;;;1.25;;
77302;SDS011;66363;49.828;7.856;2023-04-25T09:34:40;1.45;;;1.05;;
77302;SDS011;66363;49.828;7.856;2023-04-25T09:37:05;2.08;;;1.25;;
77302;SDS011;66363;49.828;7.856;2023-04-25T09:39:32;2.30;;;1.35;;
77302;SDS011;66363;49.828;7.856;2023-04-25T09:41:58;1.33;;;1.00;;
77302;SDS011;66363;49.828;7.856;2023-04-25T09:44:24;3.05;;;1.33;;
77302;SDS011;66363;49.828;7.856;2023-04-25T09:46:50;1.67;;;1.30;;
77302;SDS011;66363;49.828;7.856;2023-04-25T09:49:15;2.90;;;1.38;;
77302;SDS011;66363;49.828;7.856;2023-04-25T09:51:42;1.98;;;1.52;;
77302;SDS011;66363;49.828;7.856;2023-04-25T09:54:19;1.50;;;1.30;;
77302;SDS011;66363;49.828;7.856;2023-04-25T09:56:44;4.03;;;1.40;;
77302;SDS011;66363;49.828;7.856;2023-04-25T09:59:16;1.60;;;1.25;;
77302;SDS011;66363;49.828;7.856;2023-04-25T10:01:43;2.28;;;1.17;;
77302;SDS011;66363;49.828;7.856;2023-04-25T10:04:10;2.85;;;1.42;;
77302;SDS011;66363;49.828;7.856;2023-04-25T10:06:37;8.63;;;1.63;;
77302;SDS011;66363;49.828;7.856;2023-04-25T10:09:04;2.92;;;1.48;;
77302;SDS011;66363;49.828;7.856;2023-04-25T10:11:32;2.35;;;1.60;;
77302;SDS011;66363;49.828;7.856;2023-04-25T10:13:57;2.15;;;1.60;;
77302;SDS011;66363;49.828;7.856;2023-04-25T10:16:25;3.38;;;1.42;;
77302;SDS011;66363;49.828;7.856;2023-04-25T10:21:17;1.45;;;1.10;;
77302;SDS011;66363;49.828;7.856;2023-04-25T10:23:45;2.38;;;1.52;;
77302;SDS011;66363;49.828;7.856;2023-04-25T10:26:13;1.30;;;1.00;;
77302;SDS011;66363;49.828;7.856;2023-04-25T10:31:20;1.75;;;1.42;;
77302;SDS011;66363;49.828;7.856;2023-04-25T10:33:45;3.13;;;1.40;;
77302;SDS011;66363;49.828;7.856;2023-04-25T10:38:37;2.75;;;1.60;;
77302;SDS011;66363;49.828;7.856;2023-04-25T10:43:34;2.50;;;1.50;;
77302;SDS011;66363;49.828;7.856;2023-04-25T10:46:12;2.75;;;1.42;;
77302;SDS011;66363;49.828;7.856;2023-04-25T10:48:48;3.72;;;1.70;;
77302;SDS011;66363;49.828;7.856;2023-04-25T10:51:21;6.60;;;1.75;;
77302;SDS011;66363;49.828;7.856;2023-04-25T10:53:56;4.35;;;1.80;;
77302;SDS011;66363;49.828;7.856;2023-04-25T10:56:24;2.80;;;1.55;;
77302;SDS011;66363;49.828;7.856;2023-04-25T10:58:52;3.58;;;1.40;;
77302;SDS011;66363;49.828;7.856;2023-04-25T11:01:29;1.77;;;1.45;;
77302;SDS011;66363;49.828;7.856;2023-04-25T11:04:01;3.42;;;1.52;;
77302;SDS011;66363;49.828;7.856;2023-04-25T11:06:28;2.38;;;1.23;;
77302;SDS011;66363;49.828;7.856;2023-04-25T11:09:00;2.40;;;1.45;;
77302;SDS011;66363;49.828;7.856;2023-04-25T11:11:26;4.97;;;1.67;;
77302;SDS011;66363;49.828;7.856;2023-04-25T11:13:55;3.58;;;2.25;;
77302;SDS011;66363;49.828;7.856;2023-04-25T11:16:23;3.63;;;1.33;;
77302;SDS011;66363;49.828;7.856;2023-04-25T11:18:49;2.38;;;1.70;;
77302;SDS011;66363;49.828;7.856;2023-04-25T11:21:15;3.95;;;1.67;;
77302;SDS011;66363;49.828;7.856;2023-04-25T11:23:42;5.78;;;1.50;;
77302;SDS011;66363;49.828;7.856;2023-04-25T11:26:10;4.80;;;2.08;;
77302;SDS011;66363;49.828;7.856;2023-04-25T11:28:36;2.20;;;1.45;;
77302;SDS011;66363;49.828;7.856;2023-04-25T11:31:03;2.25;;;1.50;;
77302;SDS011;66363;49.828;7.856;2023-04-25T11:33:29;3.58;;;1.60;;
77302;SDS011;66363;49.828;7.856;2023-04-25T11:35:55;2.85;;;1.92;;
77302;SDS011;66363;49.828;7.856;2023-04-25T11:38:21;2.20;;;1.35;;
77302;SDS011;66363;49.828;7.856;2023-04-25T11:43:14;3.22;;;1.35;;
77302;SDS011;66363;49.828;7.856;2023-04-25T11:45:40;2.90;;;1.77;;
77302;SDS011;66363;49.828;7.856;2023-04-25T11:48:07;3.10;;;1.60;;
77302;SDS011;66363;49.828;7.856;2023-04-25T11:50:33;3.63;;;1.80;;
77302;SDS011;66363;49.828;7.856;2023-04-25T11:52:59;3.33;;;1.40;;
77302;SDS011;66363;49.828;7.856;2023-04-25T11:55:24;3.03;;;1.50;;
77302;SDS011;66363;49.828;7.856;2023-04-25T11:57:50;2.10;;;1.08;;
77302;SDS011;66363;49.828;7.856;2023-04-25T12:00:16;2.55;;;1.70;;
77302;SDS011;66363;49.828;7.856;2023-04-25T12:02:44;2.80;;;1.75;;
77302;SDS011;66363;49.828;7.856;2023-04-25T12:05:12;2.38;;;1.45;;
77302;SDS011;66363;49.828;7.856;2023-04-25T12:07:38;3.88;;;2.03;;
77302;SDS011;66363;49.828;7.856;2023-04-25T12:10:05;2.05;;;1.42;;
77302;SDS011;66363;49.828;7.856;2023-04-25T12:12:32;1.70;;;1.35;;
77302;SDS011;66363;49.828;7.856;2023-04-25T12:15:07;2.33;;;1.60;;
77302;SDS011;66363;49.828;7.856;2023-04-25T12:17:42;4.10;;;1.65;;
77302;SDS011;66363;49.828;7.856;2023-04-25T12:20:10;1.95;;;1.58;;
77302;SDS011;66363;49.828;7.856;2023-04-25T12:22:39;4.07;;;1.75;;
77302;SDS011;66363;49.828;7.856;2023-04-25T12:25:06;2.47;;;2.00;;
77302;SDS011;66363;49.828;7.856;2023-04-25T12:29:57;2.60;;;1.53;;
77302;SDS011;66363;49.828;7.856;2023-04-25T12:32:23;1.80;;;1.30;;
77302;SDS011;66363;49.828;7.856;2023-04-25T12:34:51;2.30;;;1.67;;
77302;SDS011;66363;49.828;7.856;2023-04-25T12:37:16;1.85;;;1.38;;
77302;SDS011;66363;49.828;7.856;2023-04-25T12:39:42;2.50;;;1.48;;
77302;SDS011;66363;49.828;7.856;2023-04-25T12:42:08;1.50;;;1.10;;
77302;SDS011;66363;49.828;7.856;2023-04-25T12:44:33;2.45;;;1.45;;
77302;SDS011;66363;49.828;7.856;2023-04-25T12:46:59;3.17;;;1.45;;
77302;SDS011;66363;49.828;7.856;2023-04-25T12:49:24;3.10;;;1.80;;
77302;SDS011;66363;49.828;7.856;2023-04-25T12:51:51;2.25;;;1.20;;
77302;SDS011;66363;49.828;7.856;2023-04-25T12:54:17;2.47;;;1.45;;
77302;SDS011;66363;49.828;7.856;2023-04-25T12:56:43;3.15;;;1.40;;
77302;SDS011;66363;49.828;7.856;2023-04-25T12:59:08;1.92;;;1.30;;
77302;SDS011;66363;49.828;7.856;2023-04-25T13:01:34;2.75;;;1.20;;
77302;SDS011;66363;49.828;7.856;2023-04-25T13:04:00;2.13;;;1.40;;
77302;SDS011;66363;49.828;7.856;2023-04-25T13:06:25;2.10;;;1.50;;
77302;SDS011;66363;49.828;7.856;2023-04-25T13:08:52;3.85;;;1.88;;
77302;SDS011;66363;49.828;7.856;2023-04-25T13:11:18;3.67;;;1.70;;
77302;SDS011;66363;49.828;7.856;2023-04-25T13:13:44;2.42;;;1.27;;
77302;SDS011;66363;49.828;7.856;2023-04-25T13:16:09;4.60;;;1.50;;
77302;SDS011;66363;49.828;7.856;2023-04-25T13:18:35;1.83;;;1.35;;
77302;SDS011;66363;49.828;7.856;2023-04-25T13:21:01;2.28;;;1.48;;
77302;SDS011;66363;49.828;7.856;2023-04-25T13:23:28;3.10;;;1.50;;
77302;SDS011;66363;49.828;7.856;2023-04-25T13:25:55;4.00;;;1.38;;
77302;SDS011;66363;49.828;7.856;2023-04-25T13:28:21;1.58;;;1.35;;
77302;SDS011;66363;49.828;7.856;2023-04-25T13:30:47;2.35;;;1.38;;
77302;SDS011;66363;49.828;7.856;2023-04-25T13:33:13;2.75;;;1.50;;
77302;SDS011;66363;49.828;7.856;2023-04-25T13:35:38;3.30;;;1.30;;
77302;SDS011;66363;49.828;7.856;2023-04-25T13:40:30;3.85;;;1.40;;
77302;SDS011;66363;49.828;7.856;2023-04-25T13:42:57;2.58;;;1.10;;
77302;SDS011;66363;49.828;7.856;2023-04-25T13:45:23;2.25;;;1.13;;
77302;SDS011;66363;49.828;7.856;2023-04-25T13:47:49;2.22;;;1.08;;
77302;SDS011;66363;49.828;7.856;2023-04-25T13:50:14;1.50;;;1.20;;
77302;SDS011;66363;49.828;7.856;2023-04-25T13:52:40;1.35;;;0.93;;
77302;SDS011;66363;49.828;7.856;2023-04-25T13:55:06;1.25;;;1.13;;
77302;SDS011;66363;49.828;7.856;2023-04-25T13:57:32;3.97;;;1.60;;
77302;SDS011;66363;49.828;7.856;2023-04-25T13:59:59;1.55;;;1.00;;
77302;SDS011;66363;49.828;7.856;2023-04-25T14:02:25;2.00;;;1.30;;
77302;SDS011;66363;49.828;7.856;2023-04-25T14:04:50;0.82;;;0.80;;
77302;SDS011;66363;49.828;7.856;2023-04-25T14:07:16;2.03;;;1.13;;
77302;SDS011;66363;49.828;7.856;2023-04-25T14:09:43;1.67;;;1.27;;
77302;SDS011;66363;49.828;7.856;2023-04-25T14:12:08;2.25;;;1.10;;
77302;SDS011;66363;49.828;7.856;2023-04-25T14:14:34;0.85;;;0.82;;
77302;SDS011;66363;49.828;7.856;2023-04-25T14:17:01;2.08;;;1.20;;
77302;SDS011;66363;49.828;7.856;2023-04-25T14:19:27;1.00;;;0.82;;
77302;SDS011;66363;49.828;7.856;2023-04-25T14:21:52;1.58;;;0.93;;
77302;SDS011;66363;49.828;7.856;2023-04-25T14:24:18;0.93;;;0.85;;
77302;SDS011;66363;49.828;7.856;2023-04-25T14:26:43;1.42;;;0.90;;
77302;SDS011;66363;49.828;7.856;2023-04-25T14:29:09;1.20;;;0.93;;
77302;SDS011;66363;49.828;7.856;2023-04-25T14:31:35;2.78;;;1.02;;
77302;SDS011;66363;49.828;7.856;2023-04-25T14:34:02;0.77;;;0.75;;
77302;SDS011;66363;49.828;7.856;2023-04-25T14:36:28;2.67;;;0.82;;
77302;SDS011;66363;49.828;7.856;2023-04-25T14:38:54;3.05;;;1.17;;
77302;SDS011;66363;49.828;7.856;2023-04-25T14:41:19;1.13;;;1.00;;
77302;SDS011;66363;49.828;7.856;2023-04-25T14:43:45;1.52;;;1.20;;
77302;SDS011;66363;49.828;7.856;2023-04-25T14:46:11;5.72;;;2.25;;
77302;SDS011;66363;49.828;7.856;2023-04-25T14:48:36;1.77;;;1.10;;
77302;SDS011;66363;49.828;7.856;2023-04-25T14:51:03;1.85;;;0.90;;
77302;SDS011;66363;49.828;7.856;2023-04-25T14:53:30;2.53;;;0.80;;
77302;SDS011;66363;49.828;7.856;2023-04-25T14:55:56;1.55;;;1.00;;
77302;SDS011;66363;49.828;7.856;2023-04-25T14:58:22;2.88;;;1.13;;
77302;SDS011;66363;49.828;7.856;2023-04-25T15:00:47;2.00;;;0.82;;
77302;SDS011;66363;49.828;7.856;2023-04-25T15:03:13;0.93;;;0.73;;
77302;SDS011;66363;49.828;7.856;2023-04-25T15:05:39;2.22;;;0.93;;
77302;SDS011;66363;49.828;7.856;2023-04-25T15:08:06;2.28;;;0.98;;